createdAt,value
2023-05-12T00:00:42.771Z,2.65
2023-05-12T00:03:09.362Z,2.70
2023-05-12T00:05:35.817Z,2.58
2023-05-12T00:08:02.230Z,2.83
2023-05-12T00:10:28.745Z,2.78
2023-05-12T00:12:55.626Z,2.60
2023-05-12T00:15:22.593Z,2.65
2023-05-12T00:17:49.482Z,2.30
2023-05-12T00:20:15.914Z,2.75
2023-05-12T00:22:42.282Z,2.35
2023-05-12T00:25:09.005Z,2.30
2023-05-12T00:27:35.457Z,2.60
2023-05-12T00:30:01.917Z,2.35
2023-05-12T00:32:29.600Z,2.13
2023-05-12T00:34:57.169Z,2.33
2023-05-12T00:37:23.673Z,3.03
2023-05-12T00:39:50.132Z,2.22
2023-05-12T00:42:16.579Z,2.58
2023-05-12T00:44:42.971Z,2.08
2023-05-12T00:47:09.567Z,2.00
2023-05-12T00:49:36.794Z,2.20
2023-05-12T00:52:03.591Z,2.10
2023-05-12T00:54:30.390Z,1.90
2023-05-12T00:56:57.560Z,2.17
2023-05-12T00:59:23.943Z,2.00
2023-05-12T01:01:50.479Z,1.85
2023-05-12T01:04:17.227Z,2.40
2023-05-12T01:06:49.367Z,2.47
2023-05-12T01:09:16.310Z,2.33
2023-05-12T01:11:42.757Z,2.25
2023-05-12T01:14:09.298Z,2.00
2023-05-12T01:16:41.113Z,2.38
2023-05-12T01:19:14.929Z,2.10
2023-05-12T01:21:41.399Z,2.10
2023-05-12T01:24:10.510Z,2.15
2023-05-12T01:26:37.147Z,2.10
2023-05-12T01:29:04.975Z,2.03
2023-05-12T01:31:32.493Z,2.30
2023-05-12T01:33:58.930Z,1.85
2023-05-12T01:36:25.407Z,2.03
2023-05-12T01:38:51.836Z,1.60
2023-05-12T01:41:18.180Z,1.70
2023-05-12T01:43:44.565Z,2.20
2023-05-12T01:46:11.074Z,2.10
2023-05-12T01:48:37.808Z,1.70
2023-05-12T01:51:07.659Z,2.47
2023-05-12T01:53:34.095Z,1.70
2023-05-12T01:56:00.871Z,2.00
2023-05-12T01:58:27.292Z,1.88
2023-05-12T02:00:53.652Z,2.17
2023-05-12T02:03:20.148Z,1.65
2023-05-12T02:05:46.610Z,1.90
2023-05-12T02:08:13.003Z,1.97
2023-05-12T02:10:39.466Z,1.60
2023-05-12T02:13:06.201Z,1.30
2023-05-12T02:15:32.724Z,1.20
2023-05-12T02:17:59.201Z,1.05
2023-05-12T02:20:25.751Z,1.27
2023-05-12T02:22:52.165Z,1.40
2023-05-12T02:25:18.640Z,1.27
2023-05-12T02:27:45.060Z,1.23
2023-05-12T02:30:11.680Z,1.23
2023-05-12T02:32:38.207Z,1.10
2023-05-12T02:35:05.031Z,1.40
2023-05-12T02:37:31.626Z,1.55
2023-05-12T02:39:58.046Z,1.27
2023-05-12T02:42:24.479Z,1.30
2023-05-12T02:44:50.838Z,1.77
2023-05-12T02:47:17.238Z,1.58
2023-05-12T02:49:43.641Z,1.83
2023-05-12T02:52:10.087Z,1.92
2023-05-12T02:54:36.755Z,1.70
2023-05-12T02:57:06.568Z,1.80
2023-05-12T02:59:33.074Z,1.88
2023-05-12T03:01:59.605Z,2.00
2023-05-12T03:04:26.138Z,2.05
2023-05-12T03:06:52.621Z,2.35
2023-05-12T03:09:19.070Z,2.63
2023-05-12T03:11:45.759Z,2.35
2023-05-12T03:14:12.203Z,2.75
2023-05-12T03:16:38.615Z,2.25
2023-05-12T03:19:05.497Z,2.75
2023-05-12T03:21:32.051Z,2.60
2023-05-12T03:23:58.410Z,2.70
2023-05-12T03:26:24.904Z,2.80
2023-05-12T03:28:51.319Z,3.10
2023-05-12T03:31:17.876Z,3.30
2023-05-12T03:33:44.263Z,3.50
2023-05-12T03:36:10.723Z,3.50
2023-05-12T03:38:37.139Z,4.13
2023-05-12T03:41:07.154Z,4.18
2023-05-12T03:43:34.292Z,4.25
2023-05-12T03:46:00.824Z,4.50
2023-05-12T03:48:27.373Z,4.25
2023-05-12T03:50:53.789Z,4.70
2023-05-12T03:53:20.679Z,5.07
2023-05-12T03:55:47.222Z,5.15
2023-05-12T03:58:13.634Z,4.87
2023-05-12T04:00:40.010Z,4.57
2023-05-12T04:03:06.470Z,5.25
2023-05-12T04:05:33.000Z,5.00
2023-05-12T04:07:59.417Z,5.43
2023-05-12T04:10:25.764Z,5.37
2023-05-12T04:12:52.350Z,5.80
2023-05-12T04:15:19.145Z,5.65
2023-05-12T04:17:45.603Z,5.90
2023-05-12T04:20:12.309Z,6.50
2023-05-12T04:22:38.917Z,6.32
2023-05-12T04:25:05.660Z,6.30
2023-05-12T04:27:32.076Z,6.70
2023-05-12T04:29:58.507Z,5.95
2023-05-12T04:32:24.889Z,6.50
2023-05-12T04:34:51.644Z,6.83
2023-05-12T04:37:18.057Z,7.60
2023-05-12T04:39:44.441Z,7.28
2023-05-12T04:42:10.870Z,7.22
2023-05-12T04:44:37.303Z,8.05
2023-05-12T04:47:03.813Z,7.73
2023-05-12T04:49:30.298Z,7.43
2023-05-12T04:51:56.694Z,7.25
2023-05-12T04:54:23.131Z,8.57
2023-05-12T04:56:49.603Z,8.55
2023-05-12T04:59:16.045Z,8.80
2023-05-12T05:01:42.829Z,8.40
2023-05-12T05:04:09.283Z,7.90
2023-05-12T05:06:35.696Z,8.65
2023-05-12T05:09:02.118Z,8.70
2023-05-12T05:11:28.531Z,8.80
2023-05-12T05:13:55.045Z,8.95
2023-05-12T05:16:22.078Z,8.65
2023-05-12T05:18:48.540Z,9.07
2023-05-12T05:21:15.166Z,8.65
2023-05-12T05:23:42.343Z,9.40
2023-05-12T05:26:09.209Z,9.27
2023-05-12T05:28:36.170Z,9.60
2023-05-12T05:31:03.109Z,8.75
2023-05-12T05:33:29.606Z,9.98
2023-05-12T05:35:56.131Z,9.50
2023-05-12T05:38:22.590Z,9.20
2023-05-12T05:40:53.874Z,9.68
2023-05-12T05:43:21.029Z,10.35
2023-05-12T05:45:49.720Z,9.38
2023-05-12T05:48:16.430Z,10.30
2023-05-12T05:50:42.981Z,9.52
2023-05-12T05:53:09.483Z,10.10
2023-05-12T05:55:35.913Z,9.80
2023-05-12T05:58:02.336Z,9.77
2023-05-12T06:00:28.777Z,9.93
2023-05-12T06:02:55.381Z,9.93
2023-05-12T06:05:22.056Z,10.50
2023-05-12T06:07:48.663Z,10.68
2023-05-12T06:10:15.083Z,11.23
2023-05-12T06:12:41.599Z,10.13
2023-05-12T06:15:08.596Z,10.75
2023-05-12T06:17:35.197Z,10.27
2023-05-12T06:20:02.012Z,10.57
2023-05-12T06:22:28.555Z,10.60
2023-05-12T06:24:54.914Z,10.55
2023-05-12T06:27:21.306Z,11.05
2023-05-12T06:29:47.717Z,10.68
2023-05-12T06:32:14.270Z,10.68
2023-05-12T06:34:40.847Z,11.32
2023-05-12T06:37:07.225Z,11.32
2023-05-12T06:39:33.680Z,10.95
2023-05-12T06:42:00.209Z,10.55
2023-05-12T06:44:26.795Z,11.10
2023-05-12T06:46:53.476Z,10.50
2023-05-12T06:49:19.967Z,10.70
2023-05-12T06:51:46.535Z,10.25
2023-05-12T06:54:12.892Z,10.13
2023-05-12T06:56:39.296Z,10.93
2023-05-12T06:59:05.753Z,11.65
2023-05-12T07:01:32.658Z,11.02
2023-05-12T07:03:59.988Z,11.55
2023-05-12T07:06:29.389Z,11.48
2023-05-12T07:08:56.140Z,10.80
2023-05-12T07:11:22.876Z,10.45
2023-05-12T07:13:50.540Z,10.57
2023-05-12T07:16:18.443Z,10.73
2023-05-12T07:18:45.613Z,10.95
2023-05-12T07:21:13.178Z,11.07
2023-05-12T07:23:39.692Z,10.77
2023-05-12T07:26:07.201Z,10.93
2023-05-12T07:28:38.057Z,10.73
2023-05-12T07:31:05.743Z,10.93
2023-05-12T07:33:43.535Z,11.23
2023-05-12T07:36:10.088Z,10.98
2023-05-12T07:38:37.018Z,10.13
2023-05-12T07:41:03.659Z,10.60
2023-05-12T07:43:30.237Z,10.50
2023-05-12T07:45:59.586Z,10.38
2023-05-12T07:48:26.057Z,10.23
2023-05-12T07:50:53.018Z,8.93
2023-05-12T07:53:19.596Z,9.93
2023-05-12T07:55:46.416Z,9.30
2023-05-12T07:58:12.870Z,9.68
2023-05-12T08:00:39.497Z,9.32
2023-05-12T08:03:07.530Z,9.45
2023-05-12T08:05:34.145Z,8.37
2023-05-12T08:08:00.631Z,8.85
2023-05-12T08:10:29.740Z,9.70
2023-05-12T08:12:56.638Z,9.32
2023-05-12T08:15:23.264Z,9.35
2023-05-12T08:17:49.729Z,8.77
2023-05-12T08:20:16.206Z,8.70
2023-05-12T08:22:42.913Z,9.48
2023-05-12T08:25:17.527Z,9.27
2023-05-12T08:27:44.061Z,9.05
2023-05-12T08:30:11.110Z,8.07
2023-05-12T08:32:37.701Z,8.52
2023-05-12T08:35:04.874Z,9.25
2023-05-12T08:37:33.720Z,8.68
2023-05-12T08:40:01.146Z,8.48
2023-05-12T08:42:44.294Z,8.03
2023-05-12T08:45:11.682Z,7.78
2023-05-12T08:47:38.826Z,8.07
2023-05-12T08:50:05.961Z,7.13
2023-05-12T08:52:33.604Z,7.40
2023-05-12T08:55:01.019Z,7.10
2023-05-12T08:57:29.768Z,7.57
2023-05-12T08:59:59.169Z,6.95
2023-05-12T09:02:29.404Z,7.55
2023-05-12T09:05:01.535Z,7.50
2023-05-12T09:07:27.973Z,6.70
2023-05-12T09:09:58.729Z,7.30
2023-05-12T09:12:30.886Z,6.82
2023-05-12T09:15:05.006Z,6.63
2023-05-12T09:17:31.443Z,5.85
2023-05-12T09:19:57.899Z,6.40
2023-05-12T09:22:31.382Z,5.50
2023-05-12T09:24:57.820Z,5.70
2023-05-12T09:27:26.448Z,5.35
2023-05-12T09:29:59.242Z,5.10
2023-05-12T09:32:34.359Z,4.70
2023-05-12T09:35:06.402Z,4.30
2023-05-12T09:37:34.523Z,4.03
2023-05-12T09:40:05.931Z,4.10
2023-05-12T09:42:33.754Z,4.82
2023-05-12T09:45:09.304Z,4.40
2023-05-12T09:47:40.031Z,4.90
2023-05-12T09:50:08.472Z,4.78
2023-05-12T09:52:39.264Z,4.85
2023-05-12T09:55:10.780Z,4.60
2023-05-12T09:57:44.645Z,4.60
2023-05-12T10:00:33.135Z,5.13
2023-05-12T10:03:09.831Z,4.55
2023-05-12T10:05:39.240Z,4.70
2023-05-12T10:08:07.786Z,4.20
2023-05-12T10:10:34.322Z,4.10
2023-05-12T10:13:01.971Z,4.18
2023-05-12T10:15:28.845Z,4.25
2023-05-12T10:17:55.655Z,4.15
2023-05-12T10:20:23.176Z,3.80
2023-05-12T10:22:49.911Z,4.13
2023-05-12T10:25:17.824Z,4.18
2023-05-12T10:27:44.539Z,3.90
2023-05-12T10:30:12.248Z,3.75
2023-05-12T10:32:38.677Z,3.95
2023-05-12T10:35:13.011Z,3.47
2023-05-12T10:37:39.657Z,3.15
2023-05-12T10:40:07.047Z,3.22
2023-05-12T10:42:41.742Z,3.40
2023-05-12T10:45:19.936Z,3.17
2023-05-12T10:47:47.728Z,3.30
2023-05-12T10:50:14.843Z,2.83
2023-05-12T10:52:53.707Z,2.90
2023-05-12T10:55:34.633Z,3.03
2023-05-12T10:58:12.579Z,2.90
2023-05-12T11:00:45.797Z,2.70
2023-05-12T11:03:18.676Z,3.08
2023-05-12T11:05:46.886Z,2.30
2023-05-12T11:08:14.301Z,2.50
2023-05-12T11:10:42.452Z,3.03
2023-05-12T11:13:09.394Z,2.40
2023-05-12T11:15:35.886Z,2.30
2023-05-12T11:18:03.581Z,2.40
2023-05-12T11:20:31.050Z,2.88
2023-05-12T11:22:57.962Z,1.88
2023-05-12T11:25:27.129Z,1.97
2023-05-12T11:27:53.865Z,2.50
2023-05-12T11:30:20.660Z,2.13
2023-05-12T11:32:47.054Z,2.10
2023-05-12T11:35:14.999Z,1.90
2023-05-12T11:37:43.442Z,1.77
2023-05-12T11:40:13.842Z,1.88
2023-05-12T11:42:41.371Z,2.08
2023-05-12T11:45:18.678Z,2.10
2023-05-12T11:47:45.302Z,2.00
2023-05-12T11:50:11.918Z,2.30
2023-05-12T11:52:39.335Z,2.60
2023-05-12T11:55:06.425Z,2.40
2023-05-12T11:57:36.157Z,2.28
2023-05-12T12:00:05.368Z,2.63
2023-05-12T12:02:32.691Z,2.53
2023-05-12T12:05:00.747Z,2.40
2023-05-12T12:07:35.111Z,2.30
2023-05-12T12:10:15.507Z,2.28
2023-05-12T12:12:42.651Z,2.38
2023-05-12T12:15:10.312Z,2.20
2023-05-12T12:17:37.124Z,2.30
2023-05-12T12:20:04.110Z,2.40
2023-05-12T12:22:34.144Z,2.30
2023-05-12T12:25:01.390Z,2.50
2023-05-12T12:27:27.901Z,2.50
2023-05-12T12:29:54.391Z,2.38
2023-05-12T12:32:20.824Z,2.20
2023-05-12T12:34:48.910Z,3.03
2023-05-12T12:37:16.140Z,2.20
2023-05-12T12:39:42.729Z,1.97
2023-05-12T12:42:09.519Z,2.15
2023-05-12T12:44:35.939Z,2.08
2023-05-12T12:47:02.330Z,2.05
2023-05-12T12:49:28.802Z,2.20
2023-05-12T12:51:55.904Z,2.10
2023-05-12T12:54:22.688Z,2.42
2023-05-12T12:56:49.123Z,2.50
2023-05-12T12:59:15.561Z,2.70
2023-05-12T13:01:41.923Z,2.65
2023-05-12T13:04:08.394Z,2.20
2023-05-12T13:06:34.827Z,2.38
2023-05-12T13:09:01.554Z,2.30
2023-05-12T13:11:28.149Z,2.70
2023-05-12T13:13:54.604Z,2.88
2023-05-12T13:16:21.172Z,2.57
2023-05-12T13:18:47.604Z,2.47
2023-05-12T13:21:14.269Z,2.58
2023-05-12T13:23:41.118Z,2.97
2023-05-12T13:26:07.527Z,2.92
2023-05-12T13:28:33.873Z,2.93
2023-05-12T13:31:00.503Z,3.60
2023-05-12T13:33:26.940Z,2.05
2023-05-12T13:35:55.020Z,2.45
2023-05-12T13:38:22.285Z,2.53
2023-05-12T13:40:48.814Z,2.50
2023-05-12T13:43:15.262Z,2.85
2023-05-12T13:45:41.891Z,3.00
2023-05-12T13:48:08.308Z,3.03
2023-05-12T13:50:34.840Z,3.10
2023-05-12T13:53:01.264Z,2.93
2023-05-12T13:55:27.722Z,3.00
2023-05-12T13:57:54.239Z,2.45
2023-05-12T14:00:20.912Z,2.95
2023-05-12T14:02:47.425Z,2.85
2023-05-12T14:05:13.962Z,3.17
2023-05-12T14:07:42.490Z,2.90
2023-05-12T14:10:09.420Z,2.58
2023-05-12T14:12:36.923Z,2.85
2023-05-12T14:15:19.828Z,2.50
2023-05-12T14:17:49.974Z,2.90
2023-05-12T14:20:16.541Z,2.47
2023-05-12T14:22:42.916Z,2.53
2023-05-12T14:25:09.582Z,3.03
2023-05-12T14:27:36.008Z,2.80
2023-05-12T14:30:02.575Z,2.73
2023-05-12T14:32:29.039Z,3.58
2023-05-12T14:34:55.471Z,2.72
2023-05-12T14:37:21.854Z,2.78
2023-05-12T14:39:48.319Z,2.53
2023-05-12T14:42:14.928Z,2.73
2023-05-12T14:44:41.370Z,2.80
2023-05-12T14:47:09.101Z,2.88
2023-05-12T14:49:35.815Z,3.20
2023-05-12T14:52:02.803Z,3.10
2023-05-12T14:54:29.460Z,2.80
2023-05-12T14:56:56.526Z,3.03
2023-05-12T14:59:23.028Z,3.00
2023-05-12T15:01:49.453Z,3.25
2023-05-12T15:04:15.867Z,2.63
2023-05-12T15:06:42.346Z,2.93
2023-05-12T15:09:09.076Z,2.28
2023-05-12T15:11:36.863Z,2.50
2023-05-12T15:14:04.567Z,3.03
2023-05-12T15:16:33.089Z,3.00
2023-05-12T15:18:59.728Z,2.87
2023-05-12T15:21:26.401Z,2.85
2023-05-12T15:23:52.855Z,3.13
2023-05-12T15:26:32.061Z,2.38
2023-05-12T15:29:00.496Z,2.58
2023-05-12T15:31:29.421Z,2.97
2023-05-12T15:33:56.933Z,3.22
2023-05-12T15:36:23.431Z,3.22
2023-05-12T15:38:49.800Z,2.78
2023-05-12T15:41:16.251Z,2.40
2023-05-12T15:43:42.766Z,2.70
2023-05-12T15:46:10.613Z,2.95
2023-05-12T15:48:37.439Z,4.53
2023-05-12T15:51:04.157Z,3.42
2023-05-12T15:53:31.120Z,3.50
2023-05-12T15:56:04.699Z,3.70
2023-05-12T15:58:31.567Z,3.90
2023-05-12T16:00:58.250Z,4.20
2023-05-12T16:03:24.891Z,4.53
2023-05-12T16:05:51.977Z,4.00
2023-05-12T16:08:18.852Z,4.60
2023-05-12T16:10:45.298Z,4.13
2023-05-12T16:13:11.776Z,4.75
2023-05-12T16:15:38.252Z,4.32
2023-05-12T16:18:06.418Z,3.80
2023-05-12T16:20:34.142Z,3.60
2023-05-12T16:23:00.657Z,3.75
2023-05-12T16:25:27.234Z,3.70
2023-05-12T16:27:53.697Z,3.85
2023-05-12T16:30:20.582Z,4.25
2023-05-12T16:32:47.388Z,3.97
2023-05-12T16:35:14.213Z,3.90
2023-05-12T16:37:41.138Z,3.63
2023-05-12T16:40:08.097Z,3.70
2023-05-12T16:42:34.465Z,3.40
2023-05-12T16:45:01.059Z,3.70
2023-05-12T16:47:27.613Z,3.72
2023-05-12T16:49:54.141Z,3.92
2023-05-12T16:52:20.742Z,3.80
2023-05-12T16:54:47.708Z,4.13
2023-05-12T16:57:14.157Z,4.37
2023-05-12T16:59:40.584Z,4.13
2023-05-12T17:02:08.361Z,4.50
2023-05-12T17:04:34.996Z,4.75
2023-05-12T17:07:01.451Z,4.55
2023-05-12T17:09:27.906Z,4.50
2023-05-12T17:11:54.458Z,4.65
2023-05-12T17:14:21.061Z,4.35
2023-05-12T17:16:47.585Z,4.75
2023-05-12T17:19:14.595Z,4.57
2023-05-12T17:21:42.177Z,4.43
2023-05-12T17:24:08.992Z,5.13
2023-05-12T17:26:35.737Z,5.05
2023-05-12T17:29:02.483Z,4.53
2023-05-12T17:31:29.170Z,4.40
2023-05-12T17:33:55.732Z,4.37
2023-05-12T17:36:22.228Z,5.57
2023-05-12T17:38:50.533Z,5.25
2023-05-12T17:41:17.120Z,5.45
2023-05-12T17:43:43.570Z,5.00
2023-05-12T17:46:10.206Z,5.07
2023-05-12T17:48:38.315Z,4.90
2023-05-12T17:51:05.302Z,4.72
2023-05-12T17:53:32.405Z,5.10
2023-05-12T17:55:59.482Z,4.38
2023-05-12T17:58:26.346Z,4.57
2023-05-12T18:00:53.081Z,4.85
2023-05-12T18:03:23.673Z,4.90
2023-05-12T18:05:51.521Z,4.75
2023-05-12T18:08:18.270Z,4.15
2023-05-12T18:10:45.051Z,5.10
2023-05-12T18:13:11.749Z,5.13
2023-05-12T18:15:38.284Z,5.15
2023-05-12T18:18:05.150Z,4.97
2023-05-12T18:20:31.611Z,4.40
2023-05-12T18:22:58.019Z,4.43
2023-05-12T18:25:24.427Z,4.75
2023-05-12T18:27:51.318Z,4.20
2023-05-12T18:30:17.794Z,4.35
2023-05-12T18:32:44.222Z,4.28
2023-05-12T18:35:10.713Z,4.00
2023-05-12T18:37:37.231Z,3.75
2023-05-12T18:40:05.042Z,3.28
2023-05-12T18:42:31.547Z,2.92
2023-05-12T18:44:57.957Z,3.10
2023-05-12T18:47:24.396Z,3.07
2023-05-12T18:49:50.972Z,3.33
2023-05-12T18:52:17.536Z,3.17
2023-05-12T18:54:47.391Z,3.30
2023-05-12T18:57:15.325Z,3.15
2023-05-12T18:59:41.719Z,2.80
2023-05-12T19:02:08.411Z,3.28
2023-05-12T19:04:34.945Z,3.22
2023-05-12T19:07:01.555Z,3.15
2023-05-12T19:09:27.933Z,3.10
2023-05-12T19:11:54.413Z,3.60
2023-05-12T19:14:21.225Z,3.20
2023-05-12T19:16:47.675Z,3.30
2023-05-12T19:19:14.225Z,3.22
2023-05-12T19:21:40.880Z,3.72
2023-05-12T19:24:08.358Z,3.57
2023-05-12T19:26:34.897Z,3.58
2023-05-12T19:29:02.064Z,3.53
2023-05-12T19:31:28.754Z,3.15
2023-05-12T19:33:55.228Z,3.75
2023-05-12T19:36:21.603Z,3.67
2023-05-12T19:38:48.086Z,3.70
2023-05-12T19:41:14.496Z,4.57
2023-05-12T19:43:41.064Z,3.53
2023-05-12T19:46:07.620Z,3.95
2023-05-12T19:48:34.164Z,3.80
2023-05-12T19:51:00.672Z,3.60
2023-05-12T19:53:27.109Z,3.35
2023-05-12T19:55:53.727Z,3.85
2023-05-12T19:58:20.230Z,3.35
2023-05-12T20:00:46.633Z,3.80
2023-05-12T20:03:13.100Z,4.32
2023-05-12T20:05:41.032Z,3.70
2023-05-12T20:08:07.486Z,3.92
2023-05-12T20:10:34.374Z,4.03
2023-05-12T20:13:03.553Z,3.80
2023-05-12T20:15:31.203Z,4.13
2023-05-12T20:17:57.843Z,4.38
2023-05-12T20:20:24.409Z,4.00
2023-05-12T20:22:51.283Z,4.38
2023-05-12T20:25:17.957Z,4.57
2023-05-12T20:27:45.143Z,4.70
2023-05-12T20:30:12.560Z,4.90
2023-05-12T20:32:39.048Z,4.95
2023-05-12T20:35:05.850Z,4.78
2023-05-12T20:37:33.059Z,4.80
2023-05-12T20:39:59.542Z,4.95
2023-05-12T20:42:25.982Z,5.13
2023-05-12T20:44:52.446Z,5.00
2023-05-12T20:47:19.215Z,5.20
2023-05-12T20:49:45.662Z,4.93
2023-05-12T20:52:12.125Z,5.03
2023-05-12T20:54:38.586Z,4.70
2023-05-12T20:57:05.229Z,5.10
2023-05-12T20:59:31.800Z,5.03
2023-05-12T21:01:58.280Z,5.90
2023-05-12T21:04:24.790Z,5.50
2023-05-12T21:06:53.297Z,4.75
2023-05-12T21:09:20.289Z,5.13
2023-05-12T21:11:47.159Z,5.45
2023-05-12T21:14:13.597Z,4.93
2023-05-12T21:16:40.024Z,5.55
2023-05-12T21:19:06.617Z,5.40
2023-05-12T21:21:33.179Z,5.53
2023-05-12T21:23:59.638Z,5.38
2023-05-12T21:26:27.175Z,5.47
2023-05-12T21:28:53.520Z,5.72
2023-05-12T21:31:20.010Z,5.60
2023-05-12T21:33:47.547Z,5.78
2023-05-12T21:36:13.942Z,5.30
2023-05-12T21:38:40.409Z,5.67
2023-05-12T21:41:06.842Z,5.70
2023-05-12T21:43:33.341Z,5.40
2023-05-12T21:46:06.401Z,5.28
2023-05-12T21:48:33.402Z,5.40
2023-05-12T21:51:01.854Z,5.17
2023-05-12T21:53:29.060Z,4.78
2023-05-12T21:55:55.597Z,5.22
2023-05-12T21:58:23.549Z,5.28
2023-05-12T22:00:53.307Z,5.35
2023-05-12T22:03:25.045Z,5.30
2023-05-12T22:05:51.753Z,5.50
2023-05-12T22:08:19.034Z,5.40
2023-05-12T22:10:45.581Z,5.78
2023-05-12T22:13:11.952Z,5.18
2023-05-12T22:15:38.446Z,5.07
2023-05-12T22:18:05.057Z,5.28
2023-05-12T22:20:31.526Z,5.20
2023-05-12T22:22:57.983Z,4.75
2023-05-12T22:25:24.372Z,4.88
2023-05-12T22:27:50.784Z,4.80
2023-05-12T22:30:18.791Z,4.60
2023-05-12T22:32:45.522Z,4.80
2023-05-12T22:35:11.970Z,4.50
2023-05-12T22:37:38.572Z,4.57
2023-05-12T22:40:05.541Z,4.53
2023-05-12T22:42:31.934Z,4.18
2023-05-12T22:44:58.403Z,4.22
2023-05-12T22:47:24.932Z,4.28
2023-05-12T22:49:51.363Z,4.30
2023-05-12T22:52:17.793Z,4.40
2023-05-12T22:54:44.251Z,4.13
2023-05-12T22:57:10.646Z,4.25
2023-05-12T22:59:37.114Z,4.25
2023-05-12T23:02:03.575Z,4.70
2023-05-12T23:04:29.995Z,4.40
2023-05-12T23:06:56.461Z,4.88
2023-05-12T23:09:22.881Z,4.07
2023-05-12T23:11:49.226Z,4.13
2023-05-12T23:14:15.660Z,4.07
2023-05-12T23:16:42.049Z,4.30
2023-05-12T23:19:08.569Z,4.30
2023-05-12T23:21:35.240Z,4.03
2023-05-12T23:24:01.715Z,4.63
2023-05-12T23:26:28.109Z,4.20
2023-05-12T23:28:54.527Z,4.10
2023-05-12T23:31:20.960Z,4.25
2023-05-12T23:33:47.401Z,4.38
2023-05-12T23:36:14.397Z,4.10
2023-05-12T23:38:41.115Z,3.90
2023-05-12T23:41:07.485Z,4.00
2023-05-12T23:43:33.849Z,4.45
2023-05-12T23:46:01.308Z,4.00
2023-05-12T23:48:28.451Z,4.43
2023-05-12T23:50:54.860Z,3.97
2023-05-12T23:53:22.057Z,4.17
2023-05-12T23:55:48.483Z,4.07
2023-05-12T23:58:14.883Z,4.00
